JZR3KB OKKK-OBBI
Flight info
| Callsign | JZR3KB |
|---|---|
| Flight time | 0h 44m |
| Altitude | 27000 |
| Route | BOXIK B416 IMDOX P975 LONOS L703 KOBOK |
| Aircraft | A20N/M-SDE2E3FGHIRWXY/LB1 |
Departure
| Time | 2026-05-04 15:30 |
|---|---|
| Airport | Kuwait International Airport (OKKK) |
Arrival
| Time | 2026-05-04 16:15 |
|---|---|
| Airport | Bahrain International Airport (OBBI) |
| Time | Latitude | Longitude | Altitude | Speed | Heading |
|---|---|---|---|---|---|
| 2026-05-04 15:07 | 29.24060 | 47.97330 | 167 ft | 0 kts | 334° |
| 2026-05-04 15:18 | 29.24046 | 47.97338 | 166 ft | 4 kts | 334° |
| 2026-05-04 15:19 | 29.24000 | 47.97351 | 166 ft | 4 kts | 353° |
| 2026-05-04 15:19 | 29.23973 | 47.97354 | 166 ft | 4 kts | 353° |
| 2026-05-04 15:19 | 29.23919 | 47.97362 | 166 ft | 4 kts | 352° |
| 2026-05-04 15:20 | 29.23896 | 47.97366 | 166 ft | 1 kts | 350° |
| 2026-05-04 15:21 | 29.23898 | 47.97364 | 166 ft | 0 kts | 332° |
| 2026-05-04 15:22 | 29.23898 | 47.97357 | 166 ft | 1 kts | 273° |
| 2026-05-04 15:22 | 29.23889 | 47.97353 | 166 ft | 2 kts | 202° |
| 2026-05-04 15:22 | 29.23847 | 47.97375 | 166 ft | 8 kts | 147° |
| 2026-05-04 15:23 | 29.23788 | 47.97409 | 166 ft | 11 kts | 163° |
| 2026-05-04 15:23 | 29.23727 | 47.97445 | 166 ft | 10 kts | 155° |
| 2026-05-04 15:23 | 29.23657 | 47.97425 | 166 ft | 12 kts | 223° |
| 2026-05-04 15:23 | 29.23610 | 47.97329 | 166 ft | 15 kts | 246° |
| 2026-05-04 15:24 | 29.23524 | 47.97110 | 166 ft | 16 kts | 246° |
| 2026-05-04 15:24 | 29.23439 | 47.96901 | 169 ft | 12 kts | 244° |
| 2026-05-04 15:25 | 29.23415 | 47.96845 | 171 ft | 2 kts | 245° |
| 2026-05-04 15:25 | 29.23409 | 47.96829 | 172 ft | 3 kts | 245° |
| 2026-05-04 15:25 | 29.23394 | 47.96786 | 175 ft | 8 kts | 257° |
| 2026-05-04 15:26 | 29.23537 | 47.96677 | 173 ft | 10 kts | 334° |
| 2026-05-04 15:26 | 29.23638 | 47.96623 | 169 ft | 22 kts | 336° |
| 2026-05-04 15:26 | 29.23899 | 47.96484 | 165 ft | 17 kts | 335° |
| 2026-05-04 15:27 | 29.24014 | 47.96421 | 165 ft | 20 kts | 335° |
| 2026-05-04 15:27 | 29.24093 | 47.96330 | 165 ft | 6 kts | 241° |
| 2026-05-04 15:28 | 29.24050 | 47.96224 | 170 ft | 6 kts | 246° |
| 2026-05-04 15:28 | 29.24031 | 47.96188 | 172 ft | 5 kts | 221° |
| 2026-05-04 15:28 | 29.23975 | 47.96191 | 173 ft | 2 kts | 156° |
| 2026-05-04 15:29 | 29.23967 | 47.96195 | 173 ft | 1 kts | 155° |
| 2026-05-04 15:30 | 29.21391 | 47.97521 | 539 ft | 168 kts | 156° |
| 2026-05-04 15:30 | 29.18192 | 47.99347 | 2225 ft | 173 kts | 144° |
| 2026-05-04 15:31 | 29.16929 | 48.01661 | 3060 ft | 194 kts | 103° |
| 2026-05-04 15:31 | 29.16619 | 48.03238 | 3383 ft | 215 kts | 102° |
| 2026-05-04 15:32 | 29.14861 | 48.08852 | 4727 ft | 274 kts | 120° |
| 2026-05-04 15:32 | 29.12890 | 48.12719 | 6215 ft | 288 kts | 121° |
| 2026-05-04 15:33 | 29.10876 | 48.16787 | 7790 ft | 297 kts | 120° |
| 2026-05-04 15:34 | 29.07810 | 48.23117 | 10108 ft | 312 kts | 121° |
| 2026-05-04 15:34 | 29.06721 | 48.25361 | 10455 ft | 334 kts | 121° |
| 2026-05-04 15:34 | 29.04317 | 48.30307 | 11177 ft | 369 kts | 121° |
| 2026-05-04 15:35 | 29.01812 | 48.35473 | 12650 ft | 378 kts | 122° |
| 2026-05-04 15:35 | 29.00526 | 48.38120 | 13383 ft | 383 kts | 122° |
| 2026-05-04 15:35 | 28.99225 | 48.40796 | 14056 ft | 387 kts | 122° |
| 2026-05-04 15:36 | 28.96584 | 48.46212 | 15343 ft | 397 kts | 122° |
| 2026-05-04 15:36 | 28.95232 | 48.48984 | 15995 ft | 401 kts | 122° |
| 2026-05-04 15:36 | 28.93865 | 48.51785 | 16655 ft | 405 kts | 121° |
| 2026-05-04 15:37 | 28.92483 | 48.54614 | 17283 ft | 409 kts | 121° |
| 2026-05-04 15:37 | 28.91087 | 48.57469 | 17907 ft | 414 kts | 121° |
| 2026-05-04 15:37 | 28.89673 | 48.60358 | 18482 ft | 417 kts | 121° |
| 2026-05-04 15:37 | 28.88269 | 48.63226 | 19065 ft | 419 kts | 121° |
| 2026-05-04 15:38 | 28.86836 | 48.66150 | 19666 ft | 422 kts | 122° |
| 2026-05-04 15:38 | 28.85402 | 48.69076 | 20274 ft | 423 kts | 122° |
| 2026-05-04 15:38 | 28.83957 | 48.72021 | 20837 ft | 426 kts | 122° |
| 2026-05-04 15:38 | 28.82503 | 48.74984 | 21395 ft | 429 kts | 122° |
| 2026-05-04 15:39 | 28.81040 | 48.77962 | 21954 ft | 432 kts | 122° |
| 2026-05-04 15:39 | 28.79583 | 48.80927 | 22513 ft | 435 kts | 122° |
| 2026-05-04 15:39 | 28.76608 | 48.87000 | 23573 ft | 441 kts | 123° |
| 2026-05-04 15:40 | 28.75103 | 48.90071 | 24001 ft | 444 kts | 123° |
| 2026-05-04 15:40 | 28.73603 | 48.93127 | 24407 ft | 448 kts | 123° |
| 2026-05-04 15:40 | 28.72074 | 48.96241 | 24801 ft | 452 kts | 123° |
| 2026-05-04 15:40 | 28.70525 | 48.99392 | 25184 ft | 457 kts | 123° |
| 2026-05-04 15:41 | 28.68963 | 49.02566 | 25591 ft | 460 kts | 123° |
| 2026-05-04 15:41 | 28.67393 | 49.05756 | 25982 ft | 464 kts | 123° |
| 2026-05-04 15:41 | 28.65808 | 49.08974 | 26366 ft | 467 kts | 123° |
| 2026-05-04 15:41 | 28.64209 | 49.12216 | 26601 ft | 472 kts | 123° |
| 2026-05-04 15:42 | 28.62603 | 49.15471 | 26692 ft | 472 kts | 123° |
| 2026-05-04 15:42 | 28.60995 | 49.18731 | 26766 ft | 472 kts | 123° |
| 2026-05-04 15:42 | 28.59280 | 49.21842 | 26758 ft | 467 kts | 133° |
| 2026-05-04 15:42 | 28.57069 | 49.24504 | 26773 ft | 459 kts | 145° |
| 2026-05-04 15:43 | 28.54478 | 49.26550 | 26772 ft | 449 kts | 158° |
| 2026-05-04 15:43 | 28.51728 | 49.28244 | 26773 ft | 451 kts | 154° |
| 2026-05-04 15:43 | 28.49131 | 49.30305 | 26775 ft | 457 kts | 147° |
| 2026-05-04 15:43 | 28.46711 | 49.32680 | 26774 ft | 460 kts | 144° |
| 2026-05-04 15:44 | 28.44310 | 49.35083 | 26771 ft | 460 kts | 144° |
| 2026-05-04 15:44 | 28.41936 | 49.37447 | 26757 ft | 460 kts | 144° |
| 2026-05-04 15:44 | 28.39519 | 49.39846 | 26770 ft | 460 kts | 144° |
| 2026-05-04 15:44 | 28.37100 | 49.42244 | 26770 ft | 460 kts | 144° |
| 2026-05-04 15:45 | 28.34682 | 49.44641 | 26777 ft | 460 kts | 144° |
| 2026-05-04 15:45 | 28.32264 | 49.47035 | 26769 ft | 460 kts | 144° |
| 2026-05-04 15:45 | 28.29877 | 49.49397 | 26774 ft | 460 kts | 144° |
| 2026-05-04 15:45 | 28.27460 | 49.51783 | 26772 ft | 460 kts | 144° |
| 2026-05-04 15:46 | 28.25040 | 49.54167 | 26768 ft | 461 kts | 144° |
| 2026-05-04 15:46 | 28.22602 | 49.56567 | 26773 ft | 463 kts | 144° |
| 2026-05-04 15:46 | 28.20089 | 49.58834 | 26773 ft | 459 kts | 148° |
| 2026-05-04 15:46 | 28.17542 | 49.61020 | 26774 ft | 459 kts | 148° |
| 2026-05-04 15:47 | 28.14994 | 49.63210 | 26776 ft | 459 kts | 148° |
| 2026-05-04 15:47 | 28.12449 | 49.65398 | 26779 ft | 459 kts | 148° |
| 2026-05-04 15:47 | 28.09937 | 49.67558 | 26774 ft | 459 kts | 148° |
| 2026-05-04 15:47 | 28.07385 | 49.69749 | 26778 ft | 460 kts | 148° |
| 2026-05-04 15:48 | 28.04834 | 49.71938 | 26775 ft | 460 kts | 148° |
| 2026-05-04 15:48 | 28.02244 | 49.74070 | 26778 ft | 458 kts | 150° |
| 2026-05-04 15:48 | 27.96961 | 49.78124 | 26774 ft | 458 kts | 152° |
| 2026-05-04 15:49 | 27.94314 | 49.80149 | 26775 ft | 458 kts | 151° |
| 2026-05-04 15:49 | 27.91706 | 49.82156 | 26778 ft | 459 kts | 151° |
| 2026-05-04 15:49 | 27.89064 | 49.84198 | 26777 ft | 459 kts | 151° |
| 2026-05-04 15:49 | 27.86429 | 49.86240 | 26773 ft | 459 kts | 150° |
| 2026-05-04 15:50 | 27.83809 | 49.88274 | 26542 ft | 455 kts | 150° |
| 2026-05-04 15:50 | 27.81199 | 49.90299 | 26101 ft | 453 kts | 150° |
| 2026-05-04 15:50 | 27.78609 | 49.92306 | 25585 ft | 449 kts | 150° |
| 2026-05-04 15:50 | 27.76072 | 49.94270 | 25053 ft | 445 kts | 150° |
| 2026-05-04 15:51 | 27.73527 | 49.96238 | 24523 ft | 441 kts | 150° |
| 2026-05-04 15:51 | 27.71002 | 49.98189 | 23994 ft | 437 kts | 150° |
| 2026-05-04 15:51 | 27.68500 | 50.00122 | 23472 ft | 434 kts | 150° |
| 2026-05-04 15:51 | 27.66022 | 50.02034 | 22892 ft | 430 kts | 149° |
| 2026-05-04 15:52 | 27.63559 | 50.03933 | 22289 ft | 426 kts | 149° |
| 2026-05-04 15:52 | 27.61122 | 50.05812 | 21698 ft | 422 kts | 149° |
| 2026-05-04 15:52 | 27.58706 | 50.07672 | 21124 ft | 419 kts | 149° |
| 2026-05-04 15:52 | 27.56338 | 50.09496 | 20564 ft | 416 kts | 149° |
| 2026-05-04 15:53 | 27.53958 | 50.11326 | 20010 ft | 412 kts | 148° |
| 2026-05-04 15:53 | 27.51599 | 50.13141 | 19493 ft | 408 kts | 148° |
| 2026-05-04 15:53 | 27.49259 | 50.14939 | 18955 ft | 405 kts | 148° |
| 2026-05-04 15:53 | 27.46933 | 50.16726 | 18431 ft | 402 kts | 148° |
| 2026-05-04 15:54 | 27.44624 | 50.18500 | 17898 ft | 399 kts | 148° |
| 2026-05-04 15:54 | 27.42357 | 50.20285 | 17316 ft | 397 kts | 146° |
| 2026-05-04 15:54 | 27.40127 | 50.22103 | 16740 ft | 394 kts | 146° |
| 2026-05-04 15:54 | 27.37917 | 50.23915 | 16198 ft | 391 kts | 145° |
| 2026-05-04 15:55 | 27.35751 | 50.25685 | 15670 ft | 388 kts | 145° |
| 2026-05-04 15:55 | 27.33573 | 50.27458 | 15147 ft | 385 kts | 145° |
| 2026-05-04 15:55 | 27.31405 | 50.29216 | 14638 ft | 383 kts | 145° |
| 2026-05-04 15:55 | 27.29248 | 50.30961 | 14129 ft | 380 kts | 144° |
| 2026-05-04 15:56 | 27.27106 | 50.32693 | 13632 ft | 377 kts | 144° |
| 2026-05-04 15:56 | 27.24979 | 50.34412 | 13086 ft | 375 kts | 144° |
| 2026-05-04 15:56 | 27.22865 | 50.36121 | 12534 ft | 373 kts | 144° |
| 2026-05-04 15:56 | 27.20783 | 50.37804 | 12326 ft | 365 kts | 144° |
| 2026-05-04 15:57 | 27.18683 | 50.39500 | 12235 ft | 375 kts | 145° |
| 2026-05-04 15:57 | 27.16582 | 50.41195 | 12135 ft | 376 kts | 145° |
| 2026-05-04 15:57 | 27.14456 | 50.42910 | 12031 ft | 374 kts | 145° |
| 2026-05-04 15:57 | 27.12368 | 50.44593 | 12002 ft | 361 kts | 144° |
| 2026-05-04 15:58 | 27.10375 | 50.46200 | 11998 ft | 344 kts | 144° |
| 2026-05-04 15:58 | 27.08481 | 50.47727 | 11998 ft | 327 kts | 144° |
| 2026-05-04 15:58 | 27.07272 | 50.48702 | 11998 ft | 321 kts | 144° |
| 2026-05-04 15:58 | 27.04836 | 50.50663 | 12001 ft | 326 kts | 144° |
| 2026-05-04 15:59 | 27.02989 | 50.52149 | 12003 ft | 325 kts | 144° |
| 2026-05-04 15:59 | 27.01156 | 50.53624 | 12003 ft | 325 kts | 144° |
| 2026-05-04 15:59 | 26.99938 | 50.54603 | 11969 ft | 324 kts | 145° |
| 2026-05-04 15:59 | 26.97983 | 50.55838 | 11667 ft | 323 kts | 159° |
| 2026-05-04 16:00 | 26.95906 | 50.56809 | 11313 ft | 322 kts | 159° |
| 2026-05-04 16:00 | 26.93833 | 50.57757 | 10943 ft | 321 kts | 160° |
| 2026-05-04 16:00 | 26.91768 | 50.58701 | 10564 ft | 319 kts | 159° |
| 2026-05-04 16:00 | 26.89712 | 50.59645 | 10189 ft | 318 kts | 159° |
| 2026-05-04 16:01 | 26.87672 | 50.60588 | 9821 ft | 316 kts | 159° |
| 2026-05-04 16:01 | 26.85672 | 50.61514 | 9448 ft | 314 kts | 159° |
| 2026-05-04 16:01 | 26.83653 | 50.62449 | 9033 ft | 313 kts | 159° |
| 2026-05-04 16:01 | 26.81640 | 50.63381 | 8634 ft | 312 kts | 159° |
| 2026-05-04 16:02 | 26.79631 | 50.64312 | 8268 ft | 309 kts | 159° |
| 2026-05-04 16:02 | 26.77653 | 50.65229 | 8178 ft | 311 kts | 159° |
| 2026-05-04 16:02 | 26.73648 | 50.67081 | 8015 ft | 310 kts | 159° |
| 2026-05-04 16:03 | 26.71652 | 50.68005 | 8008 ft | 311 kts | 159° |
| 2026-05-04 16:03 | 26.69643 | 50.68934 | 8008 ft | 312 kts | 159° |
| 2026-05-04 16:03 | 26.67634 | 50.69862 | 8008 ft | 312 kts | 159° |
| 2026-05-04 16:03 | 26.65626 | 50.70789 | 8008 ft | 313 kts | 159° |
| 2026-05-04 16:04 | 26.63610 | 50.71720 | 8003 ft | 312 kts | 159° |
| 2026-05-04 16:04 | 26.59651 | 50.73547 | 7223 ft | 308 kts | 158° |
| 2026-05-04 16:04 | 26.57669 | 50.74461 | 6666 ft | 308 kts | 158° |
| 2026-05-04 16:05 | 26.55687 | 50.75374 | 6253 ft | 307 kts | 158° |
| 2026-05-04 16:05 | 26.53741 | 50.76270 | 5796 ft | 304 kts | 158° |
| 2026-05-04 16:05 | 26.49858 | 50.78058 | 5231 ft | 300 kts | 157° |
| 2026-05-04 16:06 | 26.47911 | 50.78954 | 5139 ft | 303 kts | 157° |
| 2026-05-04 16:06 | 26.42759 | 50.81326 | 4862 ft | 297 kts | 157° |
| 2026-05-04 16:07 | 26.40269 | 50.82470 | 4526 ft | 283 kts | 156° |
| 2026-05-04 16:07 | 26.34996 | 50.84890 | 3518 ft | 262 kts | 156° |
| 2026-05-04 16:08 | 26.33357 | 50.85642 | 3353 ft | 250 kts | 156° |
| 2026-05-04 16:08 | 26.28614 | 50.87820 | 2537 ft | 243 kts | 156° |
| 2026-05-04 16:09 | 26.25519 | 50.88375 | 2258 ft | 223 kts | 203° |
| 2026-05-04 16:09 | 26.22830 | 50.86739 | 2012 ft | 220 kts | 213° |
| 2026-05-04 16:10 | 26.20185 | 50.85022 | 2006 ft | 222 kts | 213° |
| 2026-05-04 16:11 | 26.18403 | 50.80883 | 2005 ft | 205 kts | 273° |
| 2026-05-04 16:11 | 26.18428 | 50.79355 | 2024 ft | 185 kts | 284° |
| 2026-05-04 16:12 | 26.19910 | 50.75901 | 2004 ft | 160 kts | 308° |
| 2026-05-04 16:12 | 26.21704 | 50.72764 | 1602 ft | 161 kts | 307° |
| 2026-05-04 16:13 | 26.22898 | 50.70678 | 1206 ft | 153 kts | 306° |
| 2026-05-04 16:13 | 26.23927 | 50.68878 | 847 ft | 128 kts | 306° |
| 2026-05-04 16:14 | 26.24910 | 50.67179 | 535 ft | 125 kts | 303° |
| 2026-05-04 16:14 | 26.25867 | 50.65493 | 203 ft | 127 kts | 303° |
| 2026-05-04 16:15 | 26.27031 | 50.63456 | 17 ft | 47 kts | 301° |
| 2026-05-04 16:16 | 26.27255 | 50.62918 | 17 ft | 17 kts | 275° |
| 2026-05-04 16:16 | 26.27125 | 50.62934 | 22 ft | 12 kts | 130° |
| 2026-05-04 16:17 | 26.27012 | 50.63129 | 22 ft | 17 kts | 123° |
| 2026-05-04 16:18 | 26.26847 | 50.63103 | 22 ft | 8 kts | 213° |
| 2026-05-04 16:18 | 26.26820 | 50.63084 | 20 ft | 3 kts | 211° |
| 2026-05-04 16:19 | 26.26806 | 50.63075 | 20 ft | 0 kts | 213° |